sensor_id;sensor_type;location;lat;lon;timestamp;temperature;humidity
9271;DHT22;4673;53.458;9.940;2023-06-26T00:00:27;20.30;74.50
9271;DHT22;4673;53.458;9.940;2023-06-26T00:02:52;20.30;75.00
9271;DHT22;4673;53.458;9.940;2023-06-26T00:05:18;20.20;75.00
9271;DHT22;4673;53.458;9.940;2023-06-26T00:07:44;20.20;75.10
9271;DHT22;4673;53.458;9.940;2023-06-26T00:10:10;20.20;75.30
9271;DHT22;4673;53.458;9.940;2023-06-26T00:12:35;20.10;75.40
9271;DHT22;4673;53.458;9.940;2023-06-26T00:15:01;20.20;75.60
9271;DHT22;4673;53.458;9.940;2023-06-26T00:17:27;20.10;75.70
9271;DHT22;4673;53.458;9.940;2023-06-26T00:19:52;20.00;76.00
9271;DHT22;4673;53.458;9.940;2023-06-26T00:22:18;20.00;76.50
9271;DHT22;4673;53.458;9.940;2023-06-26T00:24:44;20.00;77.00
9271;DHT22;4673;53.458;9.940;2023-06-26T00:27:10;19.90;77.30
9271;DHT22;4673;53.458;9.940;2023-06-26T00:29:36;19.80;77.70
9271;DHT22;4673;53.458;9.940;2023-06-26T00:32:06;19.70;77.90
9271;DHT22;4673;53.458;9.940;2023-06-26T00:34:32;19.60;78.50
9271;DHT22;4673;53.458;9.940;2023-06-26T00:36:58;19.60;79.10
9271;DHT22;4673;53.458;9.940;2023-06-26T00:39:25;19.50;79.70
9271;DHT22;4673;53.458;9.940;2023-06-26T00:41:51;19.40;80.20
9271;DHT22;4673;53.458;9.940;2023-06-26T00:44:19;19.40;80.80
9271;DHT22;4673;53.458;9.940;2023-06-26T00:46:45;19.40;80.80
9271;DHT22;4673;53.458;9.940;2023-06-26T00:49:11;19.30;80.90
9271;DHT22;4673;53.458;9.940;2023-06-26T00:51:38;19.30;81.20
9271;DHT22;4673;53.458;9.940;2023-06-26T00:54:03;19.30;80.90
9271;DHT22;4673;53.458;9.940;2023-06-26T00:56:31;19.40;80.90
9271;DHT22;4673;53.458;9.940;2023-06-26T00:58:56;19.30;80.70
9271;DHT22;4673;53.458;9.940;2023-06-26T01:01:22;19.30;81.20
9271;DHT22;4673;53.458;9.940;2023-06-26T01:03:51;19.30;80.90
9271;DHT22;4673;53.458;9.940;2023-06-26T01:06:20;19.30;81.20
9271;DHT22;4673;53.458;9.940;2023-06-26T01:08:47;19.30;81.30
9271;DHT22;4673;53.458;9.940;2023-06-26T01:11:14;19.30;81.10
9271;DHT22;4673;53.458;9.940;2023-06-26T01:13:41;19.30;81.40
9271;DHT22;4673;53.458;9.940;2023-06-26T01:16:09;19.20;81.30
9271;DHT22;4673;53.458;9.940;2023-06-26T01:18:35;19.10;81.50
9271;DHT22;4673;53.458;9.940;2023-06-26T01:21:03;19.10;81.90
9271;DHT22;4673;53.458;9.940;2023-06-26T01:23:35;19.00;82.20
9271;DHT22;4673;53.458;9.940;2023-06-26T01:26:20;19.00;82.50
9271;DHT22;4673;53.458;9.940;2023-06-26T01:28:47;18.90;82.60
9271;DHT22;4673;53.458;9.940;2023-06-26T01:31:15;19.00;83.10
9271;DHT22;4673;53.458;9.940;2023-06-26T01:33:41;19.00;82.70
9271;DHT22;4673;53.458;9.940;2023-06-26T01:36:07;19.00;82.60
9271;DHT22;4673;53.458;9.940;2023-06-26T01:38:33;18.90;82.70
9271;DHT22;4673;53.458;9.940;2023-06-26T01:41:00;18.90;83.00
9271;DHT22;4673;53.458;9.940;2023-06-26T01:46:27;19.00;82.60
9271;DHT22;4673;53.458;9.940;2023-06-26T01:48:59;19.00;82.10
9271;DHT22;4673;53.458;9.940;2023-06-26T01:51:30;19.00;81.70
9271;DHT22;4673;53.458;9.940;2023-06-26T01:53:59;19.00;81.30
9271;DHT22;4673;53.458;9.940;2023-06-26T01:56:26;19.00;81.00
9271;DHT22;4673;53.458;9.940;2023-06-26T01:58:54;19.00;80.90
9271;DHT22;4673;53.458;9.940;2023-06-26T02:01:21;19.00;80.60
9271;DHT22;4673;53.458;9.940;2023-06-26T02:03:47;19.00;80.50
9271;DHT22;4673;53.458;9.940;2023-06-26T02:06:13;19.00;80.30
9271;DHT22;4673;53.458;9.940;2023-06-26T02:08:39;18.90;79.90
9271;DHT22;4673;53.458;9.940;2023-06-26T02:11:05;19.00;79.80
9271;DHT22;4673;53.458;9.940;2023-06-26T02:13:31;19.00;79.60
9271;DHT22;4673;53.458;9.940;2023-06-26T02:15:56;19.00;79.70
9271;DHT22;4673;53.458;9.940;2023-06-26T02:18:22;19.00;79.90
9271;DHT22;4673;53.458;9.940;2023-06-26T02:20:49;19.00;80.50
9271;DHT22;4673;53.458;9.940;2023-06-26T02:23:14;18.90;80.70
9271;DHT22;4673;53.458;9.940;2023-06-26T02:25:40;18.90;81.10
9271;DHT22;4673;53.458;9.940;2023-06-26T02:28:06;18.80;81.40
9271;DHT22;4673;53.458;9.940;2023-06-26T02:30:32;18.80;81.80
9271;DHT22;4673;53.458;9.940;2023-06-26T02:32:58;18.70;82.30
9271;DHT22;4673;53.458;9.940;2023-06-26T02:35:23;18.70;82.80
9271;DHT22;4673;53.458;9.940;2023-06-26T02:37:49;18.70;83.10
9271;DHT22;4673;53.458;9.940;2023-06-26T02:40:15;18.70;83.00
9271;DHT22;4673;53.458;9.940;2023-06-26T02:42:41;18.70;83.30
9271;DHT22;4673;53.458;9.940;2023-06-26T02:45:07;18.70;83.50
9271;DHT22;4673;53.458;9.940;2023-06-26T02:47:33;18.70;83.30
9271;DHT22;4673;53.458;9.940;2023-06-26T02:49:58;18.70;83.50
9271;DHT22;4673;53.458;9.940;2023-06-26T02:52:24;18.70;83.20
9271;DHT22;4673;53.458;9.940;2023-06-26T02:54:50;18.80;83.00
9271;DHT22;4673;53.458;9.940;2023-06-26T02:57:15;18.70;82.90
9271;DHT22;4673;53.458;9.940;2023-06-26T02:59:42;18.70;83.20
9271;DHT22;4673;53.458;9.940;2023-06-26T03:02:08;18.70;83.30
9271;DHT22;4673;53.458;9.940;2023-06-26T03:04:33;18.60;83.60
9271;DHT22;4673;53.458;9.940;2023-06-26T03:07:02;18.60;83.60
9271;DHT22;4673;53.458;9.940;2023-06-26T03:09:28;18.60;83.70
9271;DHT22;4673;53.458;9.940;2023-06-26T03:11:53;18.60;83.90
9271;DHT22;4673;53.458;9.940;2023-06-26T03:14:21;18.60;83.70
9271;DHT22;4673;53.458;9.940;2023-06-26T03:16:46;18.60;83.70
9271;DHT22;4673;53.458;9.940;2023-06-26T03:19:12;18.60;83.70
9271;DHT22;4673;53.458;9.940;2023-06-26T03:21:38;18.60;83.60
9271;DHT22;4673;53.458;9.940;2023-06-26T03:24:03;18.60;83.80
9271;DHT22;4673;53.458;9.940;2023-06-26T03:26:29;18.60;83.50
9271;DHT22;4673;53.458;9.940;2023-06-26T03:28:55;18.60;83.60
9271;DHT22;4673;53.458;9.940;2023-06-26T03:31:20;18.70;83.30
9271;DHT22;4673;53.458;9.940;2023-06-26T03:33:47;18.70;83.00
9271;DHT22;4673;53.458;9.940;2023-06-26T03:36:13;18.80;82.70
9271;DHT22;4673;53.458;9.940;2023-06-26T03:38:38;18.80;82.60
9271;DHT22;4673;53.458;9.940;2023-06-26T03:41:04;19.00;82.40
9271;DHT22;4673;53.458;9.940;2023-06-26T03:43:30;19.20;81.50
9271;DHT22;4673;53.458;9.940;2023-06-26T03:45:55;19.30;80.50
9271;DHT22;4673;53.458;9.940;2023-06-26T03:48:21;19.40;79.60
9271;DHT22;4673;53.458;9.940;2023-06-26T03:50:47;19.50;78.90
9271;DHT22;4673;53.458;9.940;2023-06-26T03:53:13;19.60;78.00
9271;DHT22;4673;53.458;9.940;2023-06-26T03:55:38;19.60;77.60
9271;DHT22;4673;53.458;9.940;2023-06-26T03:58:04;19.80;77.20
9271;DHT22;4673;53.458;9.940;2023-06-26T04:00:30;19.80;76.90
9271;DHT22;4673;53.458;9.940;2023-06-26T04:02:56;19.90;76.20
9271;DHT22;4673;53.458;9.940;2023-06-26T04:05:23;19.90;75.60
9271;DHT22;4673;53.458;9.940;2023-06-26T04:07:52;20.00;75.40
9271;DHT22;4673;53.458;9.940;2023-06-26T04:10:18;20.00;74.80
9271;DHT22;4673;53.458;9.940;2023-06-26T04:12:43;20.10;74.50
9271;DHT22;4673;53.458;9.940;2023-06-26T04:15:09;20.20;74.10
9271;DHT22;4673;53.458;9.940;2023-06-26T04:17:35;20.30;73.60
9271;DHT22;4673;53.458;9.940;2023-06-26T04:20:00;20.30;73.40
9271;DHT22;4673;53.458;9.940;2023-06-26T04:22:26;20.40;72.90
9271;DHT22;4673;53.458;9.940;2023-06-26T04:24:52;20.50;72.60
9271;DHT22;4673;53.458;9.940;2023-06-26T04:27:18;20.60;72.10
9271;DHT22;4673;53.458;9.940;2023-06-26T04:29:43;20.60;71.70
9271;DHT22;4673;53.458;9.940;2023-06-26T04:32:09;20.70;71.50
9271;DHT22;4673;53.458;9.940;2023-06-26T04:34:35;20.80;70.90
9271;DHT22;4673;53.458;9.940;2023-06-26T04:37:06;21.00;70.00
9271;DHT22;4673;53.458;9.940;2023-06-26T04:39:32;21.00;69.60
9271;DHT22;4673;53.458;9.940;2023-06-26T04:41:58;21.10;68.60
9271;DHT22;4673;53.458;9.940;2023-06-26T04:44:24;21.20;67.90
9271;DHT22;4673;53.458;9.940;2023-06-26T04:46:49;21.30;67.70
9271;DHT22;4673;53.458;9.940;2023-06-26T04:49:17;21.40;67.10
9271;DHT22;4673;53.458;9.940;2023-06-26T04:51:43;21.40;66.80
9271;DHT22;4673;53.458;9.940;2023-06-26T04:54:11;21.60;66.50
9271;DHT22;4673;53.458;9.940;2023-06-26T04:56:37;21.70;66.10
9271;DHT22;4673;53.458;9.940;2023-06-26T04:59:05;21.70;65.40
9271;DHT22;4673;53.458;9.940;2023-06-26T05:01:31;21.80;65.30
9271;DHT22;4673;53.458;9.940;2023-06-26T05:04:01;21.80;64.60
9271;DHT22;4673;53.458;9.940;2023-06-26T05:06:28;21.80;64.40
9271;DHT22;4673;53.458;9.940;2023-06-26T05:08:53;21.80;64.50
9271;DHT22;4673;53.458;9.940;2023-06-26T05:11:19;21.70;64.60
9271;DHT22;4673;53.458;9.940;2023-06-26T05:13:45;21.70;65.10
9271;DHT22;4673;53.458;9.940;2023-06-26T05:16:10;21.70;65.50
9271;DHT22;4673;53.458;9.940;2023-06-26T05:18:36;21.70;65.40
9271;DHT22;4673;53.458;9.940;2023-06-26T05:21:02;21.70;65.60
9271;DHT22;4673;53.458;9.940;2023-06-26T05:23:33;21.80;64.80
9271;DHT22;4673;53.458;9.940;2023-06-26T05:26:00;21.80;64.60
9271;DHT22;4673;53.458;9.940;2023-06-26T05:28:27;21.90;64.30
9271;DHT22;4673;53.458;9.940;2023-06-26T05:30:56;21.90;64.20
9271;DHT22;4673;53.458;9.940;2023-06-26T05:33:24;22.00;63.90
9271;DHT22;4673;53.458;9.940;2023-06-26T05:35:51;22.00;64.10
9271;DHT22;4673;53.458;9.940;2023-06-26T05:38:17;22.10;63.60
9271;DHT22;4673;53.458;9.940;2023-06-26T05:40:43;22.20;63.20
9271;DHT22;4673;53.458;9.940;2023-06-26T05:43:09;22.30;62.80
9271;DHT22;4673;53.458;9.940;2023-06-26T05:45:35;22.40;62.40
9271;DHT22;4673;53.458;9.940;2023-06-26T05:48:01;22.50;61.80
9271;DHT22;4673;53.458;9.940;2023-06-26T05:50:27;22.70;62.00
9271;DHT22;4673;53.458;9.940;2023-06-26T05:52:54;22.80;61.40
9271;DHT22;4673;53.458;9.940;2023-06-26T05:55:20;22.90;61.50
9271;DHT22;4673;53.458;9.940;2023-06-26T05:57:46;22.90;60.80
9271;DHT22;4673;53.458;9.940;2023-06-26T06:00:13;23.00;60.60
9271;DHT22;4673;53.458;9.940;2023-06-26T06:02:39;23.10;59.90
9271;DHT22;4673;53.458;9.940;2023-06-26T06:05:06;23.10;59.10
9271;DHT22;4673;53.458;9.940;2023-06-26T06:07:35;23.10;59.30
9271;DHT22;4673;53.458;9.940;2023-06-26T06:10:02;23.30;59.20
9271;DHT22;4673;53.458;9.940;2023-06-26T06:12:28;23.50;58.20
9271;DHT22;4673;53.458;9.940;2023-06-26T06:14:55;23.60;58.00
9271;DHT22;4673;53.458;9.940;2023-06-26T06:17:21;23.70;56.70
9271;DHT22;4673;53.458;9.940;2023-06-26T06:19:46;23.70;56.60
9271;DHT22;4673;53.458;9.940;2023-06-26T06:22:12;23.70;56.10
9271;DHT22;4673;53.458;9.940;2023-06-26T06:24:38;23.80;55.90
9271;DHT22;4673;53.458;9.940;2023-06-26T06:27:03;23.90;56.00
9271;DHT22;4673;53.458;9.940;2023-06-26T06:29:29;24.00;55.60
9271;DHT22;4673;53.458;9.940;2023-06-26T06:31:55;24.00;55.00
9271;DHT22;4673;53.458;9.940;2023-06-26T06:34:20;24.10;55.20
9271;DHT22;4673;53.458;9.940;2023-06-26T06:36:46;24.20;54.30
9271;DHT22;4673;53.458;9.940;2023-06-26T06:39:12;24.20;54.70
9271;DHT22;4673;53.458;9.940;2023-06-26T06:41:38;24.30;54.90
9271;DHT22;4673;53.458;9.940;2023-06-26T06:44:04;24.30;53.60
9271;DHT22;4673;53.458;9.940;2023-06-26T06:46:29;24.40;53.50
9271;DHT22;4673;53.458;9.940;2023-06-26T06:48:55;24.50;52.40
9271;DHT22;4673;53.458;9.940;2023-06-26T06:51:22;24.50;51.30
9271;DHT22;4673;53.458;9.940;2023-06-26T06:53:47;24.60;51.70
9271;DHT22;4673;53.458;9.940;2023-06-26T06:56:13;24.60;52.70
9271;DHT22;4673;53.458;9.940;2023-06-26T06:58:39;24.70;51.50
9271;DHT22;4673;53.458;9.940;2023-06-26T07:01:08;24.80;51.60
9271;DHT22;4673;53.458;9.940;2023-06-26T07:03:35;24.80;52.00
9271;DHT22;4673;53.458;9.940;2023-06-26T07:06:01;24.90;51.00
9271;DHT22;4673;53.458;9.940;2023-06-26T07:08:27;25.00;49.80
9271;DHT22;4673;53.458;9.940;2023-06-26T07:10:52;25.00;49.60
9271;DHT22;4673;53.458;9.940;2023-06-26T07:13:18;25.10;50.00
9271;DHT22;4673;53.458;9.940;2023-06-26T07:15:45;25.10;50.50
9271;DHT22;4673;53.458;9.940;2023-06-26T07:18:11;25.20;49.40
9271;DHT22;4673;53.458;9.940;2023-06-26T07:20:36;25.30;49.00
9271;DHT22;4673;53.458;9.940;2023-06-26T07:23:02;25.30;49.70
9271;DHT22;4673;53.458;9.940;2023-06-26T07:25:27;25.40;49.00
9271;DHT22;4673;53.458;9.940;2023-06-26T07:27:53;25.50;48.30
9271;DHT22;4673;53.458;9.940;2023-06-26T07:30:18;25.60;45.80
9271;DHT22;4673;53.458;9.940;2023-06-26T07:32:45;25.80;45.20
9271;DHT22;4673;53.458;9.940;2023-06-26T07:35:10;25.90;44.50
9271;DHT22;4673;53.458;9.940;2023-06-26T07:37:36;26.10;43.70
9271;DHT22;4673;53.458;9.940;2023-06-26T07:40:02;26.30;41.10
9271;DHT22;4673;53.458;9.940;2023-06-26T07:42:28;26.50;40.30
9271;DHT22;4673;53.458;9.940;2023-06-26T07:44:54;26.70;37.40
9271;DHT22;4673;53.458;9.940;2023-06-26T07:47:19;26.90;36.40
9271;DHT22;4673;53.458;9.940;2023-06-26T07:49:45;27.10;36.70
9271;DHT22;4673;53.458;9.940;2023-06-26T07:52:11;27.30;33.70
9271;DHT22;4673;53.458;9.940;2023-06-26T07:54:36;27.40;30.80
9271;DHT22;4673;53.458;9.940;2023-06-26T07:57:04;27.50;30.40
9271;DHT22;4673;53.458;9.940;2023-06-26T07:59:34;27.60;29.40
9271;DHT22;4673;53.458;9.940;2023-06-26T08:02:00;27.60;26.80
9271;DHT22;4673;53.458;9.940;2023-06-26T08:04:27;27.80;26.90
9271;DHT22;4673;53.458;9.940;2023-06-26T08:06:55;28.10;27.70
9271;DHT22;4673;53.458;9.940;2023-06-26T08:09:23;28.40;24.90
9271;DHT22;4673;53.458;9.940;2023-06-26T08:11:49;28.70;24.30
9271;DHT22;4673;53.458;9.940;2023-06-26T08:14:15;28.90;22.20
9271;DHT22;4673;53.458;9.940;2023-06-26T08:16:42;29.10;23.20
9271;DHT22;4673;53.458;9.940;2023-06-26T08:19:08;29.40;21.20
9271;DHT22;4673;53.458;9.940;2023-06-26T08:21:34;29.50;19.70
9271;DHT22;4673;53.458;9.940;2023-06-26T08:23:59;29.50;18.70
9271;DHT22;4673;53.458;9.940;2023-06-26T08:26:25;29.40;19.50
9271;DHT22;4673;53.458;9.940;2023-06-26T08:28:51;29.30;20.00
9271;DHT22;4673;53.458;9.940;2023-06-26T08:31:17;29.20;20.90
9271;DHT22;4673;53.458;9.940;2023-06-26T08:33:43;29.30;20.10
9271;DHT22;4673;53.458;9.940;2023-06-26T08:36:08;29.30;19.50
9271;DHT22;4673;53.458;9.940;2023-06-26T08:38:34;29.50;21.40
9271;DHT22;4673;53.458;9.940;2023-06-26T08:40:59;29.70;19.10
9271;DHT22;4673;53.458;9.940;2023-06-26T08:43:26;29.90;18.30
9271;DHT22;4673;53.458;9.940;2023-06-26T08:45:52;29.90;17.70
9271;DHT22;4673;53.458;9.940;2023-06-26T08:48:18;30.10;17.10
9271;DHT22;4673;53.458;9.940;2023-06-26T08:50:48;30.00;17.50
9271;DHT22;4673;53.458;9.940;2023-06-26T08:53:33;30.00;17.50
9271;DHT22;4673;53.458;9.940;2023-06-26T08:56:02;29.70;18.40
9271;DHT22;4673;53.458;9.940;2023-06-26T08:58:28;29.50;18.90
9271;DHT22;4673;53.458;9.940;2023-06-26T09:00:53;29.30;20.20
9271;DHT22;4673;53.458;9.940;2023-06-26T09:03:21;29.30;20.30
9271;DHT22;4673;53.458;9.940;2023-06-26T09:05:48;29.30;21.40
9271;DHT22;4673;53.458;9.940;2023-06-26T09:08:14;29.10;21.90
9271;DHT22;4673;53.458;9.940;2023-06-26T09:10:40;28.90;23.10
9271;DHT22;4673;53.458;9.940;2023-06-26T09:13:06;28.70;23.60
9271;DHT22;4673;53.458;9.940;2023-06-26T09:15:39;28.70;24.00
9271;DHT22;4673;53.458;9.940;2023-06-26T09:18:07;28.70;25.30
9271;DHT22;4673;53.458;9.940;2023-06-26T09:20:33;28.70;25.10
9271;DHT22;4673;53.458;9.940;2023-06-26T09:22:59;28.80;24.90
9271;DHT22;4673;53.458;9.940;2023-06-26T09:25:25;29.00;24.70
9271;DHT22;4673;53.458;9.940;2023-06-26T09:27:53;29.20;23.40
9271;DHT22;4673;53.458;9.940;2023-06-26T09:30:19;29.40;22.30
9271;DHT22;4673;53.458;9.940;2023-06-26T09:32:45;29.60;22.20
9271;DHT22;4673;53.458;9.940;2023-06-26T09:35:11;29.90;21.00
9271;DHT22;4673;53.458;9.940;2023-06-26T09:37:37;30.30;20.30
9271;DHT22;4673;53.458;9.940;2023-06-26T09:40:03;30.30;19.40
9271;DHT22;4673;53.458;9.940;2023-06-26T09:42:30;30.20;20.40
9271;DHT22;4673;53.458;9.940;2023-06-26T09:44:56;29.80;20.80
9271;DHT22;4673;53.458;9.940;2023-06-26T09:47:22;29.70;22.30
9271;DHT22;4673;53.458;9.940;2023-06-26T09:49:48;29.90;21.90
9271;DHT22;4673;53.458;9.940;2023-06-26T09:52:17;30.00;20.40
9271;DHT22;4673;53.458;9.940;2023-06-26T09:54:44;29.60;20.30
9271;DHT22;4673;53.458;9.940;2023-06-26T09:57:15;28.70;22.10
9271;DHT22;4673;53.458;9.940;2023-06-26T09:59:43;28.00;25.20
9271;DHT22;4673;53.458;9.940;2023-06-26T10:02:11;27.10;27.70
9271;DHT22;4673;53.458;9.940;2023-06-26T10:04:37;26.30;30.80
9271;DHT22;4673;53.458;9.940;2023-06-26T10:07:06;26.00;34.70
9271;DHT22;4673;53.458;9.940;2023-06-26T10:09:42;25.50;37.20
9271;DHT22;4673;53.458;9.940;2023-06-26T10:12:29;25.30;40.30
9271;DHT22;4673;53.458;9.940;2023-06-26T10:14:56;25.10;42.30
9271;DHT22;4673;53.458;9.940;2023-06-26T10:17:25;24.70;43.40
9271;DHT22;4673;53.458;9.940;2023-06-26T10:19:53;24.40;52.60
9271;DHT22;4673;53.458;9.940;2023-06-26T10:22:25;23.90;57.80
9271;DHT22;4673;53.458;9.940;2023-06-26T10:24:55;23.10;66.20
9271;DHT22;4673;53.458;9.940;2023-06-26T10:27:25;22.50;70.80
9271;DHT22;4673;53.458;9.940;2023-06-26T10:30:02;22.00;73.70
9271;DHT22;4673;53.458;9.940;2023-06-26T10:32:28;21.60;77.20
9271;DHT22;4673;53.458;9.940;2023-06-26T10:34:55;21.50;80.60
9271;DHT22;4673;53.458;9.940;2023-06-26T10:37:43;21.30;82.70
9271;DHT22;4673;53.458;9.940;2023-06-26T10:40:13;21.00;83.60
9271;DHT22;4673;53.458;9.940;2023-06-26T10:42:39;20.90;86.50
9271;DHT22;4673;53.458;9.940;2023-06-26T10:47:36;21.00;89.80
9271;DHT22;4673;53.458;9.940;2023-06-26T10:50:19;21.00;91.50
9271;DHT22;4673;53.458;9.940;2023-06-26T10:52:45;21.10;92.70
9271;DHT22;4673;53.458;9.940;2023-06-26T10:55:13;21.20;93.20
9271;DHT22;4673;53.458;9.940;2023-06-26T10:57:38;21.40;93.20
9271;DHT22;4673;53.458;9.940;2023-06-26T11:00:13;21.50;92.90
9271;DHT22;4673;53.458;9.940;2023-06-26T11:02:52;21.60;91.40
9271;DHT22;4673;53.458;9.940;2023-06-26T11:05:26;21.60;89.20
9271;DHT22;4673;53.458;9.940;2023-06-26T11:08:06;21.60;90.30
9271;DHT22;4673;53.458;9.940;2023-06-26T11:10:52;22.00;92.10
9271;DHT22;4673;53.458;9.940;2023-06-26T11:13:19;22.40;91.00
9271;DHT22;4673;53.458;9.940;2023-06-26T11:15:46;22.80;89.50
9271;DHT22;4673;53.458;9.940;2023-06-26T11:18:12;23.00;85.60
9271;DHT22;4673;53.458;9.940;2023-06-26T11:20:38;23.20;84.40
9271;DHT22;4673;53.458;9.940;2023-06-26T11:23:08;22.60;77.90
9271;DHT22;4673;53.458;9.940;2023-06-26T11:25:38;22.50;80.40
9271;DHT22;4673;53.458;9.940;2023-06-26T11:28:04;22.20;76.50
9271;DHT22;4673;53.458;9.940;2023-06-26T11:30:31;22.30;81.10
9271;DHT22;4673;53.458;9.940;2023-06-26T11:33:07;22.60;80.70
9271;DHT22;4673;53.458;9.940;2023-06-26T11:35:33;22.90;79.10
9271;DHT22;4673;53.458;9.940;2023-06-26T11:38:01;22.90;74.30
9271;DHT22;4673;53.458;9.940;2023-06-26T11:40:31;22.90;73.00
9271;DHT22;4673;53.458;9.940;2023-06-26T11:42:58;23.00;72.80
9271;DHT22;4673;53.458;9.940;2023-06-26T11:45:28;23.20;69.50
9271;DHT22;4673;53.458;9.940;2023-06-26T11:47:57;23.10;68.70
9271;DHT22;4673;53.458;9.940;2023-06-26T11:50:24;23.00;67.60
9271;DHT22;4673;53.458;9.940;2023-06-26T11:52:57;23.10;67.60
9271;DHT22;4673;53.458;9.940;2023-06-26T11:55:24;23.00;62.50
9271;DHT22;4673;53.458;9.940;2023-06-26T11:57:52;23.00;61.70
9271;DHT22;4673;53.458;9.940;2023-06-26T12:00:18;23.20;65.60
9271;DHT22;4673;53.458;9.940;2023-06-26T12:02:45;23.30;58.30
9271;DHT22;4673;53.458;9.940;2023-06-26T12:05:20;23.10;53.80
9271;DHT22;4673;53.458;9.940;2023-06-26T12:07:47;22.70;56.40
9271;DHT22;4673;53.458;9.940;2023-06-26T12:10:14;22.50;58.00
9271;DHT22;4673;53.458;9.940;2023-06-26T12:12:41;22.70;58.10
9271;DHT22;4673;53.458;9.940;2023-06-26T12:15:08;22.80;58.20
9271;DHT22;4673;53.458;9.940;2023-06-26T12:17:38;23.10;58.90
9271;DHT22;4673;53.458;9.940;2023-06-26T12:20:05;23.40;56.00
9271;DHT22;4673;53.458;9.940;2023-06-26T12:22:35;23.60;56.30
9271;DHT22;4673;53.458;9.940;2023-06-26T12:25:01;23.60;49.50
9271;DHT22;4673;53.458;9.940;2023-06-26T12:27:27;23.70;49.00
9271;DHT22;4673;53.458;9.940;2023-06-26T12:29:54;23.70;49.80
9271;DHT22;4673;53.458;9.940;2023-06-26T12:32:23;23.70;48.40
9271;DHT22;4673;53.458;9.940;2023-06-26T12:34:50;23.50;46.20
9271;DHT22;4673;53.458;9.940;2023-06-26T12:37:16;23.60;48.60
9271;DHT22;4673;53.458;9.940;2023-06-26T12:42:16;24.20;43.50
9271;DHT22;4673;53.458;9.940;2023-06-26T12:44:42;24.00;41.20
9271;DHT22;4673;53.458;9.940;2023-06-26T12:47:08;24.20;45.00
9271;DHT22;4673;53.458;9.940;2023-06-26T12:49:37;23.90;40.90
9271;DHT22;4673;53.458;9.940;2023-06-26T12:52:05;23.60;41.00
9271;DHT22;4673;53.458;9.940;2023-06-26T12:54:33;23.10;39.10
9271;DHT22;4673;53.458;9.940;2023-06-26T12:56:59;23.00;41.60
9271;DHT22;4673;53.458;9.940;2023-06-26T12:59:24;23.20;41.10
9271;DHT22;4673;53.458;9.940;2023-06-26T13:01:50;23.20;39.20
9271;DHT22;4673;53.458;9.940;2023-06-26T13:04:16;23.30;38.90
9271;DHT22;4673;53.458;9.940;2023-06-26T13:06:42;23.50;41.60
9271;DHT22;4673;53.458;9.940;2023-06-26T13:09:08;23.50;39.10
9271;DHT22;4673;53.458;9.940;2023-06-26T13:11:36;23.30;38.70
9271;DHT22;4673;53.458;9.940;2023-06-26T13:14:02;23.30;38.80
9271;DHT22;4673;53.458;9.940;2023-06-26T13:16:27;23.10;38.00
9271;DHT22;4673;53.458;9.940;2023-06-26T13:18:53;23.30;39.90
9271;DHT22;4673;53.458;9.940;2023-06-26T13:21:19;23.50;37.10
9271;DHT22;4673;53.458;9.940;2023-06-26T13:23:45;23.50;36.20
9271;DHT22;4673;53.458;9.940;2023-06-26T13:26:11;23.20;36.20
9271;DHT22;4673;53.458;9.940;2023-06-26T13:28:37;23.10;36.80
9271;DHT22;4673;53.458;9.940;2023-06-26T13:31:03;23.30;36.50
9271;DHT22;4673;53.458;9.940;2023-06-26T13:33:30;23.40;35.10
9271;DHT22;4673;53.458;9.940;2023-06-26T13:35:56;23.50;32.90
9271;DHT22;4673;53.458;9.940;2023-06-26T13:38:22;23.50;34.60
9271;DHT22;4673;53.458;9.940;2023-06-26T13:40:54;23.80;34.30
9271;DHT22;4673;53.458;9.940;2023-06-26T13:43:22;23.60;32.60
9271;DHT22;4673;53.458;9.940;2023-06-26T13:45:49;23.50;34.70
9271;DHT22;4673;53.458;9.940;2023-06-26T13:48:15;23.40;31.60
9271;DHT22;4673;53.458;9.940;2023-06-26T13:50:40;23.60;32.80
9271;DHT22;4673;53.458;9.940;2023-06-26T13:53:06;23.70;31.50
9271;DHT22;4673;53.458;9.940;2023-06-26T13:55:33;23.90;28.80
9271;DHT22;4673;53.458;9.940;2023-06-26T13:57:59;23.70;28.90
9271;DHT22;4673;53.458;9.940;2023-06-26T14:00:24;23.60;29.50
9271;DHT22;4673;53.458;9.940;2023-06-26T14:02:51;23.70;32.00
9271;DHT22;4673;53.458;9.940;2023-06-26T14:05:17;23.80;29.40
9271;DHT22;4673;53.458;9.940;2023-06-26T14:07:46;23.80;29.40
9271;DHT22;4673;53.458;9.940;2023-06-26T14:10:12;23.80;28.70
9271;DHT22;4673;53.458;9.940;2023-06-26T14:12:39;24.00;28.90
9271;DHT22;4673;53.458;9.940;2023-06-26T14:15:05;23.90;25.90
9271;DHT22;4673;53.458;9.940;2023-06-26T14:17:31;23.90;26.80
9271;DHT22;4673;53.458;9.940;2023-06-26T14:19:56;24.00;25.60
9271;DHT22;4673;53.458;9.940;2023-06-26T14:22:22;23.90;26.20
9271;DHT22;4673;53.458;9.940;2023-06-26T14:24:49;23.80;26.60
9271;DHT22;4673;53.458;9.940;2023-06-26T14:27:14;23.60;26.60
9271;DHT22;4673;53.458;9.940;2023-06-26T14:29:40;23.70;26.00
9271;DHT22;4673;53.458;9.940;2023-06-26T14:32:06;23.80;25.90
9271;DHT22;4673;53.458;9.940;2023-06-26T14:34:32;23.80;24.90
9271;DHT22;4673;53.458;9.940;2023-06-26T14:36:58;23.50;25.70
9271;DHT22;4673;53.458;9.940;2023-06-26T14:39:23;23.30;26.40
9271;DHT22;4673;53.458;9.940;2023-06-26T14:41:49;23.50;27.10
9271;DHT22;4673;53.458;9.940;2023-06-26T14:44:15;23.50;24.20
9271;DHT22;4673;53.458;9.940;2023-06-26T14:46:41;23.20;25.80
9271;DHT22;4673;53.458;9.940;2023-06-26T14:49:07;23.10;25.90
9271;DHT22;4673;53.458;9.940;2023-06-26T14:51:33;23.20;26.00
9271;DHT22;4673;53.458;9.940;2023-06-26T14:53:59;23.10;22.80
9271;DHT22;4673;53.458;9.940;2023-06-26T14:56:24;22.90;22.20
9271;DHT22;4673;53.458;9.940;2023-06-26T14:58:50;22.60;22.80
9271;DHT22;4673;53.458;9.940;2023-06-26T15:01:18;22.60;23.90
9271;DHT22;4673;53.458;9.940;2023-06-26T15:03:48;22.60;22.70
9271;DHT22;4673;53.458;9.940;2023-06-26T15:06:14;22.50;23.50
9271;DHT22;4673;53.458;9.940;2023-06-26T15:08:40;22.50;20.30
9271;DHT22;4673;53.458;9.940;2023-06-26T15:11:05;22.50;20.80
9271;DHT22;4673;53.458;9.940;2023-06-26T15:13:31;22.80;21.10
9271;DHT22;4673;53.458;9.940;2023-06-26T15:15:57;23.20;20.30
9271;DHT22;4673;53.458;9.940;2023-06-26T15:18:22;23.20;19.80
9271;DHT22;4673;53.458;9.940;2023-06-26T15:20:48;23.10;21.00
9271;DHT22;4673;53.458;9.940;2023-06-26T15:23:13;23.10;20.10
9271;DHT22;4673;53.458;9.940;2023-06-26T15:25:39;22.50;22.10
9271;DHT22;4673;53.458;9.940;2023-06-26T15:28:06;22.30;24.10
9271;DHT22;4673;53.458;9.940;2023-06-26T15:30:31;22.00;25.20
9271;DHT22;4673;53.458;9.940;2023-06-26T15:32:57;21.90;26.70
9271;DHT22;4673;53.458;9.940;2023-06-26T15:35:23;21.70;27.50
9271;DHT22;4673;53.458;9.940;2023-06-26T15:37:48;21.90;25.70
9271;DHT22;4673;53.458;9.940;2023-06-26T15:40:15;22.00;24.70
9271;DHT22;4673;53.458;9.940;2023-06-26T15:42:51;22.20;24.00
9271;DHT22;4673;53.458;9.940;2023-06-26T15:45:18;22.30;20.80
9271;DHT22;4673;53.458;9.940;2023-06-26T15:47:44;22.10;21.50
9271;DHT22;4673;53.458;9.940;2023-06-26T15:50:10;22.20;22.50
9271;DHT22;4673;53.458;9.940;2023-06-26T15:52:37;22.40;22.00
9271;DHT22;4673;53.458;9.940;2023-06-26T15:55:04;22.60;22.80
9271;DHT22;4673;53.458;9.940;2023-06-26T15:57:31;22.60;22.40
9271;DHT22;4673;53.458;9.940;2023-06-26T15:59:57;22.70;22.40
9271;DHT22;4673;53.458;9.940;2023-06-26T16:02:22;22.70;23.00
9271;DHT22;4673;53.458;9.940;2023-06-26T16:04:48;22.80;22.40
9271;DHT22;4673;53.458;9.940;2023-06-26T16:07:14;22.70;21.50